Time;durP1;ratioP1;P1;durP2;ratioP2;P2;SDS_P1;SDS_P2;PMS_P1;PMS_P2;Temp;Humidity;BMP_temperature;BMP_pressure;BME280_temperature;BME280_humidity;BME280_pressure;Samples;Min_cycle;Max_cycle;Signal;HPM_P1;HPM_P2
2023/08/09 00:02:15;;;;;;;;;1.00;1.00;;;;;22.90;55.83;100685.28;5038402;28;45643;-64
2023/08/09 00:04:41;;;;;;;;;5.00;5.00;;;;;22.81;55.74;100691.50;5040582;28;44994;-64
2023/08/09 00:07:06;;;;;;;;;3.25;3.25;;;;;22.78;56.45;100699.81;5049252;28;45693;-63
2023/08/09 00:09:31;;;;;;;;;4.00;4.00;;;;;22.63;56.60;100672.53;5057362;28;45423;-63
2023/08/09 00:11:57;;;;;;;;;3.00;3.00;;;;;22.67;56.74;100673.13;5038323;28;53118;-63
2023/08/09 00:14:23;;;;;;;;;4.00;4.00;;;;;22.68;56.41;100682.88;5036314;28;46620;-64
2023/08/09 00:16:48;;;;;;;;;3.00;3.00;;;;;22.64;56.74;100662.69;5036798;28;44791;-63
2023/08/09 00:19:14;;;;;;;;;4.25;4.25;;;;;22.68;56.92;100670.28;5036473;28;45443;-63
2023/08/09 00:21:39;;;;;;;;;3.50;3.50;;;;;22.49;56.79;100638.09;5036028;28;45635;-63
2023/08/09 00:24:05;;;;;;;;;5.00;5.00;;;;;22.65;56.70;100685.81;5053563;28;61757;-63
2023/08/09 00:26:30;;;;;;;;;8.00;8.00;;;;;22.67;56.98;100676.63;5057740;28;45457;-64
2023/08/09 00:28:56;;;;;;;;;5.00;5.00;;;;;22.65;56.91;100665.22;5059838;28;45532;-63
2023/08/09 00:31:22;;;;;;;;;6.75;6.75;;;;;22.73;56.96;100678.75;5058048;28;45324;-63
2023/08/09 00:33:47;;;;;;;;;9.25;8.00;;;;;22.67;57.12;100673.97;5057786;28;45518;-63
2023/08/09 00:36:13;;;;;;;;;7.00;5.00;;;;;22.88;56.61;100678.38;5058837;28;45207;-64
2023/08/09 00:38:38;;;;;;;;;5.75;5.75;;;;;22.72;57.11;100684.28;5055965;28;45324;-63
2023/08/09 00:41:04;;;;;;;;;5.75;5.50;;;;;22.61;57.09;100680.75;5056638;28;45240;-63
2023/08/09 00:43:29;;;;;;;;;3.75;3.75;;;;;22.81;56.79;100688.81;5055839;28;45433;-63
2023/08/09 00:45:55;;;;;;;;;4.00;4.00;;;;;22.64;57.43;100693.00;5055975;28;45250;-63
2023/08/09 00:48:21;;;;;;;;;5.75;4.00;;;;;22.56;57.37;100701.75;5056203;28;45428;-63
2023/08/09 00:50:46;;;;;;;;;4.00;4.00;;;;;22.49;57.55;100689.88;5050256;28;45333;-64
2023/08/09 00:53:12;;;;;;;;;3.00;3.00;;;;;22.38;57.81;100689.97;5034896;28;48227;-63
2023/08/09 00:55:38;;;;;;;;;5.75;3.75;;;;;22.50;57.55;100682.66;5037669;28;45444;-64
2023/08/09 00:58:05;;;;;;;;;3.00;3.00;;;;;22.31;58.40;100682.47;5055651;28;45469;-64
2023/08/09 01:00:31;;;;;;;;;4.00;4.00;;;;;22.33;58.49;100677.81;5037540;28;45503;-64
2023/08/09 01:02:57;;;;;;;;;2.50;2.50;;;;;22.45;58.18;100691.97;5055386;28;45227;-63
2023/08/09 01:05:58;;;;;;;;;2.00;2.00;;;;;22.48;58.20;100685.50;5055122;28;45399;-63
2023/08/09 01:08:43;;;;;;;;;3.00;3.00;;;;;22.52;58.09;100691.44;5012323;28;45453;-63
2023/08/09 01:11:35;;;;;;;;;3.00;3.00;;;;;22.53;58.14;100688.63;5037541;28;45504;-63
2023/08/09 01:14:02;;;;;;;;;3.75;3.75;;;;;22.57;58.50;100687.34;5055661;28;46056;-63
2023/08/09 01:16:28;;;;;;;;;3.50;3.50;;;;;22.59;58.67;100684.53;5057820;28;45344;-64
2023/08/09 01:18:56;;;;;;;;;3.75;3.75;;;;;22.63;58.30;100690.47;5055278;28;45374;-64
2023/08/09 01:21:26;;;;;;;;;4.00;4.00;;;;;22.55;58.88;100692.00;5055916;28;45214;-66
2023/08/09 01:23:52;;;;;;;;;3.00;3.00;;;;;22.61;58.97;100696.81;5055161;28;45354;-65
2023/08/09 01:26:17;;;;;;;;;3.25;3.25;;;;;22.77;57.84;100701.63;5055765;28;45312;-62
2023/08/09 01:28:43;;;;;;;;;3.00;3.00;;;;;22.81;58.40;100702.22;5055383;28;45376;-62
2023/08/09 01:31:08;;;;;;;;;3.00;3.00;;;;;22.67;58.49;100703.44;5055868;28;45437;-62
2023/08/09 01:33:34;;;;;;;;;3.00;3.00;;;;;22.55;59.07;100697.38;5054989;28;45963;-63
2023/08/09 01:36:16;;;;;;;;;2.00;2.00;;;;;22.61;59.16;100707.53;5055322;28;45299;-63
2023/08/09 01:38:48;;;;;;;;;3.00;3.00;;;;;22.53;59.38;100702.03;5055252;28;45504;-63
2023/08/09 01:41:15;;;;;;;;;1.75;1.75;;;;;22.57;59.61;100705.25;5055316;28;45636;-64
2023/08/09 01:43:41;;;;;;;;;2.00;2.00;;;;;22.37;60.14;100697.13;5054932;28;46240;-63
2023/08/09 01:46:08;;;;;;;;;1.75;1.75;;;;;22.39;60.24;100695.16;5054748;28;45419;-64
2023/08/09 01:48:35;;;;;;;;;2.00;2.00;;;;;22.32;60.49;100719.00;5055198;28;45364;-63
2023/08/09 01:51:01;;;;;;;;;2.00;2.00;;;;;22.28;60.61;100698.81;5054319;28;45622;-67
2023/08/09 01:53:27;;;;;;;;;3.00;3.00;;;;;22.21;61.16;100699.47;5054704;28;45392;-64
2023/08/09 01:55:52;;;;;;;;;3.00;3.00;;;;;22.26;61.22;100707.97;5054988;28;45317;-62
2023/08/09 01:58:19;;;;;;;;;2.00;2.00;;;;;22.19;61.37;100707.63;5055353;28;45779;-63
2023/08/09 02:00:44;;;;;;;;;2.00;2.00;;;;;22.16;61.54;100707.91;5055120;28;45571;-63
2023/08/09 02:03:11;;;;;;;;;3.00;3.00;;;;;22.26;61.51;100705.28;5054677;28;45891;-64
2023/08/09 02:05:38;;;;;;;;;1.25;1.25;;;;;22.20;61.33;100708.50;5056173;28;45285;-63
2023/08/09 02:08:04;;;;;;;;;1.25;1.25;;;;;22.18;61.60;100713.97;5055713;28;45352;-63
2023/08/09 02:10:30;;;;;;;;;3.00;3.00;;;;;22.11;62.17;100711.00;5055234;28;45356;-64
2023/08/09 02:12:55;;;;;;;;;2.00;2.00;;;;;22.10;61.94;100713.81;5054740;28;46288;-64
2023/08/09 02:15:21;;;;;;;;;3.00;3.00;;;;;22.06;62.36;100705.19;5054458;28;59682;-64
2023/08/09 02:17:48;;;;;;;;;2.50;2.50;;;;;22.06;62.52;100705.19;5054776;28;45205;-62
2023/08/09 02:20:14;;;;;;;;;1.25;1.25;;;;;21.97;62.76;100706.00;5055265;28;45272;-62
2023/08/09 02:22:40;;;;;;;;;2.50;2.50;;;;;21.97;63.02;100704.16;5055025;28;46074;-63
2023/08/09 02:25:07;;;;;;;;;2.00;2.00;;;;;22.04;62.84;100704.50;5054732;28;45308;-63
2023/08/09 02:27:36;;;;;;;;;3.00;3.00;;;;;22.08;62.89;100700.56;5054723;28;45415;-63
2023/08/09 02:30:03;;;;;;;;;2.00;2.00;;;;;22.10;62.79;100695.06;5036835;28;45550;-63
2023/08/09 02:32:31;;;;;;;;;1.75;1.75;;;;;22.09;62.96;100698.72;5055223;28;46209;-63
2023/08/09 02:34:56;;;;;;;;;2.75;2.75;;;;;22.03;62.85;100708.16;5037572;28;45465;-63
2023/08/09 02:37:22;;;;;;;;;1.50;1.50;;;;;22.06;63.02;100705.19;5055393;28;45387;-63
2023/08/09 02:39:47;;;;;;;;;2.50;2.50;;;;;22.12;62.80;100701.13;5055362;28;45590;-63
2023/08/09 02:42:13;;;;;;;;;2.50;2.50;;;;;22.07;62.64;100690.81;5036571;28;45590;-63
2023/08/09 02:44:38;;;;;;;;;3.00;3.00;;;;;22.01;62.74;100699.41;5054779;28;45415;-63
2023/08/09 02:47:04;;;;;;;;;2.25;2.25;;;;;22.02;63.12;100701.94;5054753;28;45363;-63
2023/08/09 02:49:29;;;;;;;;;2.25;2.25;;;;;21.94;63.23;100695.56;5055112;28;45361;-63
2023/08/09 02:51:54;;;;;;;;;3.00;3.00;;;;;21.81;63.25;100703.78;5054981;28;46060;-64
2023/08/09 02:54:20;;;;;;;;;2.00;2.00;;;;;21.71;63.83;100703.72;5054477;28;45425;-64
2023/08/09 02:56:45;;;;;;;;;1.00;1.00;;;;;21.69;63.67;100701.19;5054722;28;45220;-63
2023/08/09 02:59:10;;;;;;;;;2.50;2.50;;;;;21.66;64.14;100700.59;5054396;28;51475;-63
2023/08/09 03:01:36;;;;;;;;;2.25;2.25;;;;;21.61;64.06;100692.94;5056197;28;45400;-64
2023/08/09 03:04:01;;;;;;;;;2.00;2.00;;;;;21.47;64.57;100702.13;5057987;28;45281;-64
2023/08/09 03:06:27;;;;;;;;;2.50;2.50;;;;;21.34;64.83;100680.94;5057150;28;45350;-64
2023/08/09 03:08:52;;;;;;;;;2.25;2.25;;;;;21.36;65.20;100705.72;5058674;28;45296;-63
2023/08/09 03:11:20;;;;;;;;;1.25;1.25;;;;;21.30;65.45;100703.56;5057966;28;45572;-66
2023/08/09 03:13:45;;;;;;;;;3.00;3.00;;;;;21.23;65.66;100710.41;5057856;28;45162;-63
2023/08/09 03:16:12;;;;;;;;;2.00;2.00;;;;;21.24;65.64;100712.94;5058060;28;45469;-63
2023/08/09 03:18:38;;;;;;;;;2.00;2.00;;;;;21.24;65.35;100702.25;5058174;28;45476;-64
2023/08/09 03:21:04;;;;;;;;;2.00;2.00;;;;;21.24;65.95;100714.78;5052308;28;45479;-65
2023/08/09 03:23:29;;;;;;;;;2.25;2.25;;;;;21.26;66.01;100720.84;5039225;28;45511;-63
2023/08/09 03:25:54;;;;;;;;;3.00;3.00;;;;;21.28;66.32;100724.25;5041471;28;45307;-64
2023/08/09 03:28:20;;;;;;;;;2.00;2.00;;;;;21.36;66.48;100728.94;5057639;28;45521;-65
2023/08/09 03:30:45;;;;;;;;;3.00;3.00;;;;;21.39;66.21;100729.56;5058209;28;46323;-63
2023/08/09 03:33:11;;;;;;;;;2.00;2.00;;;;;21.39;66.13;100724.19;5057225;28;45392;-64
2023/08/09 03:35:36;;;;;;;;;2.50;1.50;;;;;21.35;66.18;100711.19;5057269;28;45292;-64
2023/08/09 03:38:02;;;;;;;;;3.00;3.00;;;;;21.49;66.18;100718.06;5053606;28;45277;-65
2023/08/09 03:40:27;;;;;;;;;3.00;3.00;;;;;21.61;65.62;100727.72;5037708;28;46261;-63
2023/08/09 03:42:52;;;;;;;;;2.00;2.00;;;;;21.63;65.43;100725.81;5037804;28;45459;-63
2023/08/09 03:45:17;;;;;;;;;1.00;1.00;;;;;21.60;65.71;100723.34;5039964;28;45214;-63
2023/08/09 03:47:43;;;;;;;;;2.00;2.00;;;;;21.67;65.83;100729.06;5037292;28;45210;-64
2023/08/09 03:50:10;;;;;;;;;3.00;3.00;;;;;21.66;65.86;100730.03;5035953;28;45918;-63
2023/08/09 03:52:36;;;;;;;;;1.75;1.75;;;;;21.67;65.92;100732.59;5018071;28;45485;-63
2023/08/09 03:55:01;;;;;;;;;1.67;1.67;;;;;21.62;65.99;100726.75;5036809;28;45273;-64
2023/08/09 03:57:27;;;;;;;;;2.00;2.00;;;;;21.61;66.22;100727.72;5036268;28;45430;-63
2023/08/09 03:59:54;;;;;;;;;2.00;2.00;;;;;21.53;66.61;100740.91;5036960;28;46208;-64
2023/08/09 04:02:19;;;;;;;;;2.00;2.00;;;;;21.40;67.24;100744.63;5036696;28;45367;-63
2023/08/09 04:04:45;;;;;;;;;2.00;2.00;;;;;21.40;67.54;100752.66;5037005;28;45919;-63
2023/08/09 04:07:10;;;;;;;;;2.00;2.00;;;;;21.39;67.38;100748.28;5037331;28;45813;-63
2023/08/09 04:09:36;;;;;;;;;1.00;1.00;;;;;21.37;67.39;100744.88;5046863;28;46113;-64
2023/08/09 04:12:03;;;;;;;;;1.00;1.00;;;;;21.45;67.63;100753.13;5017672;28;45363;-64
2023/08/09 04:14:28;;;;;;;;;1.50;1.50;;;;;21.37;68.00;100757.41;5044964;28;45387;-63
2023/08/09 04:16:54;;;;;;;;;1.25;1.25;;;;;21.38;68.12;100765.31;5056250;28;45355;-62
2023/08/09 04:19:19;;;;;;;;;2.25;2.25;;;;;21.30;68.53;100763.25;5055886;28;45489;-64
2023/08/09 04:21:44;;;;;;;;;4.00;2.50;;;;;21.26;68.89;100769.84;5055482;28;64001;-64
2023/08/09 04:24:10;;;;;;;;;1.00;1.00;;;;;21.23;69.07;100763.91;5055282;28;63928;-63
2023/08/09 04:26:35;;;;;;;;;1.00;1.00;;;;;21.27;68.98;100760.00;5047553;28;45344;-64
2023/08/09 04:29:02;;;;;;;;;1.00;1.00;;;;;21.28;69.13;100767.06;5035998;28;45510;-64
2023/08/09 04:31:28;;;;;;;;;1.00;1.00;;;;;21.27;68.71;100765.34;5035804;28;45459;-64
2023/08/09 04:33:53;;;;;;;;;1.00;1.00;;;;;21.23;69.20;100767.41;5017589;28;45454;-65
2023/08/09 04:36:18;;;;;;;;;1.00;1.00;;;;;21.22;69.34;100773.75;5036204;28;45364;-63
2023/08/09 04:38:44;;;;;;;;;0.00;0.00;;;;;21.29;68.88;100771.44;5017766;28;46267;-63
2023/08/09 04:41:10;;;;;;;;;1.00;1.00;;;;;21.27;69.05;100779.56;5034962;28;45486;-63
2023/08/09 04:43:39;;;;;;;;;1.00;1.00;;;;;21.34;68.87;100781.72;5036217;28;45428;-66
2023/08/09 04:46:04;;;;;;;;;2.00;2.00;;;;;21.26;69.36;100782.38;5019142;28;45441;-63
2023/08/09 04:48:30;;;;;;;;;1.50;1.50;;;;;21.35;69.31;100778.94;5036419;28;45359;-64
2023/08/09 04:50:56;;;;;;;;;1.00;1.00;;;;;21.37;69.06;100779.66;5036373;28;45343;-65
2023/08/09 04:53:22;;;;;;;;;2.00;2.00;;;;;21.33;69.22;100775.53;5036246;28;45364;-64
2023/08/09 04:55:47;;;;;;;;;1.00;1.00;;;;;21.39;69.05;100782.19;5036336;28;45501;-64
2023/08/09 04:58:13;;;;;;;;;2.00;2.00;;;;;21.40;69.35;100784.75;5036226;28;45387;-63
2023/08/09 05:00:38;;;;;;;;;1.00;1.00;;;;;21.37;69.48;100786.81;5036340;28;45387;-64
2023/08/09 05:03:04;;;;;;;;;1.75;1.75;;;;;21.39;69.43;100788.41;5019541;28;45399;-63
2023/08/09 05:05:30;;;;;;;;;1.50;1.50;;;;;21.47;69.17;100786.94;5036766;28;45398;-65
2023/08/09 05:07:55;;;;;;;;;1.25;1.25;;;;;21.38;68.97;100788.53;5036014;28;45329;-64
2023/08/09 05:10:21;;;;;;;;;2.00;2.00;;;;;21.34;69.31;100779.91;5037363;28;45317;-64
2023/08/09 05:12:46;;;;;;;;;1.50;1.50;;;;;21.47;68.67;100786.94;5037610;28;45454;-64
2023/08/09 05:15:11;;;;;;;;;4.25;4.25;;;;;21.56;68.77;100792.34;5018072;28;46885;-63
2023/08/09 05:17:36;;;;;;;;;1.00;1.00;;;;;21.51;68.83;100781.16;5036181;28;45286;-65
2023/08/09 05:20:02;;;;;;;;;1.00;1.00;;;;;21.56;68.66;100792.34;5037719;28;45297;-64
2023/08/09 05:22:28;;;;;;;;;1.00;1.00;;;;;21.54;68.68;100794.28;5037042;28;45225;-64
2023/08/09 05:24:54;;;;;;;;;0.00;0.00;;;;;21.50;68.92;100790.19;5036119;28;45220;-64
2023/08/09 05:27:19;;;;;;;;;0.50;0.50;;;;;21.52;68.92;100787.38;5035707;28;45899;-65
2023/08/09 05:29:44;;;;;;;;;1.00;1.00;;;;;21.55;69.05;100779.09;5035583;28;45429;-64
2023/08/09 05:32:10;;;;;;;;;0.00;0.00;;;;;21.49;68.94;100776.94;5035094;28;50903;-64
2023/08/09 05:34:35;;;;;;;;;0.00;0.00;;;;;21.47;68.91;100784.25;5036206;28;45457;-64
2023/08/09 05:37:00;;;;;;;;;0.00;0.00;;;;;21.47;69.05;100786.94;5035968;28;45397;-65
2023/08/09 05:39:26;;;;;;;;;1.00;1.00;;;;;21.42;69.32;100801.53;5034851;28;65952;-65
2023/08/09 05:41:52;;;;;;;;;1.00;1.00;;;;;21.40;69.21;100811.53;5035845;28;45405;-63
2023/08/09 05:44:17;;;;;;;;;0.67;0.67;;;;;21.43;69.30;100811.25;5017629;28;45545;-65
2023/08/09 05:46:43;;;;;;;;;0.00;0.00;;;;;21.52;69.49;100814.16;5035735;28;45384;-63
2023/08/09 05:49:09;;;;;;;;;0.00;0.00;;;;;21.56;69.10;100808.41;5018215;28;45304;-62
2023/08/09 05:51:35;;;;;;;;;0.00;0.00;;;;;21.64;68.94;100821.19;5036922;28;45332;-63
2023/08/09 05:54:01;;;;;;;;;0.00;0.00;;;;;21.57;69.54;100814.63;5035210;28;45499;-65
2023/08/09 05:56:26;;;;;;;;;0.00;0.00;;;;;21.52;69.58;100803.44;5016842;28;47119;-68
2023/08/09 05:58:51;;;;;;;;;0.33;0.33;;;;;21.51;69.53;100805.25;5035447;28;45484;-68
2023/08/09 06:01:17;;;;;;;;;7.75;7.75;;;;;21.58;69.41;100810.97;5034455;28;56349;-73
2023/08/09 06:03:42;;;;;;;;;1.25;1.25;;;;;21.65;69.07;100809.50;5016329;28;45306;-69
2023/08/09 06:06:08;;;;;;;;;0.00;0.00;;;;;21.60;69.15;100807.16;5033201;28;50238;-66
2023/08/09 06:08:35;;;;;;;;;1.00;1.00;;;;;21.71;69.13;100805.44;5034733;28;45201;-68
2023/08/09 06:11:01;;;;;;;;;1.00;1.00;;;;;21.79;69.01;100811.03;5035091;28;45317;-67
2023/08/09 06:13:26;;;;;;;;;0.00;0.00;;;;;21.87;68.61;100802.34;5034897;28;45523;-69
2023/08/09 06:15:52;;;;;;;;;1.00;1.00;;;;;21.99;68.42;100811.16;5034255;28;46362;-68
2023/08/09 06:18:17;;;;;;;;;0.00;0.00;;;;;22.08;67.90;100814.88;5034658;28;45344;-74
2023/08/09 06:20:43;;;;;;;;;1.00;1.00;;;;;22.18;67.82;100818.44;5048482;28;45475;-63
2023/08/09 06:23:09;;;;;;;;;0.00;0.00;;;;;22.25;67.42;100808.06;5053974;28;45938;-62
2023/08/09 06:25:35;;;;;;;;;10.00;10.00;;;;;22.31;66.51;100807.53;5053073;28;45534;-66
2023/08/09 06:28:00;;;;;;;;;1.00;1.00;;;;;22.28;66.45;100816.72;5052046;28;45415;-63
2023/08/09 06:30:26;;;;;;;;;0.00;0.00;;;;;22.27;66.73;100828.41;5052542;28;45482;-64
2023/08/09 06:32:51;;;;;;;;;1.00;1.00;;;;;22.26;67.05;100834.72;5051961;28;45438;-61
2023/08/09 06:35:17;;;;;;;;;1.75;1.75;;;;;22.26;67.09;100826.69;5051361;28;55254;-63
2023/08/09 06:37:42;;;;;;;;;0.50;0.50;;;;;22.28;66.99;100834.59;5052628;28;45430;-61
2023/08/09 06:40:08;;;;;;;;;0.00;0.00;;;;;22.17;67.12;100844.41;5053463;28;45442;-63
2023/08/09 06:42:34;;;;;;;;;0.50;0.50;;;;;22.02;68.00;100856.44;5054531;28;45334;-67
2023/08/09 06:45:01;;;;;;;;;1.25;1.25;;;;;21.93;68.98;100857.22;5054193;28;46259;-61
2023/08/09 06:47:26;;;;;;;;;2.25;2.25;;;;;21.84;69.53;100859.69;5055937;28;45470;-64
2023/08/09 06:49:52;;;;;;;;;2.00;2.00;;;;;21.74;70.17;100854.25;5056650;28;45313;-63
2023/08/09 06:52:17;;;;;;;;;2.00;2.00;;;;;21.77;70.48;100863.00;5055243;28;45303;-62
2023/08/09 06:54:42;;;;;;;;;2.00;2.00;;;;;21.80;70.92;100868.09;5069266;28;46064;-63
2023/08/09 06:57:08;;;;;;;;;1.25;1.25;;;;;21.79;71.41;100866.41;5075559;27;45387;-63
2023/08/09 06:59:34;;;;;;;;;3.00;3.00;;;;;21.87;72.41;100871.94;5074652;28;52472;-64
2023/08/09 07:01:59;;;;;;;;;1.50;1.50;;;;;21.83;72.92;100873.19;5056616;28;45332;-63
2023/08/09 07:04:25;;;;;;;;;2.00;2.00;;;;;21.82;72.70;100876.84;5054192;28;45482;-65
2023/08/09 07:06:50;;;;;;;;;2.00;2.00;;;;;21.69;73.25;100866.28;5053563;28;45542;-64
2023/08/09 07:09:18;;;;;;;;;1.00;1.00;;;;;21.76;73.39;100875.53;5054403;28;45565;-67
2023/08/09 07:11:45;;;;;;;;;3.00;3.00;;;;;21.88;73.86;100879.00;5053969;28;45195;-60
2023/08/09 07:14:10;;;;;;;;;1.50;1.50;;;;;21.91;73.40;100875.25;5054511;28;47221;-66
2023/08/09 07:16:35;;;;;;;;;3.00;3.00;;;;;21.97;73.58;100878.22;5053307;28;45329;-64
2023/08/09 07:19:02;;;;;;;;;2.25;2.25;;;;;22.01;73.73;100881.53;5053629;28;56066;-64
2023/08/09 07:21:27;;;;;;;;;1.75;1.00;;;;;22.09;72.99;100884.41;5056324;28;45629;-64
2023/08/09 07:23:53;;;;;;;;;3.00;2.00;;;;;22.20;73.04;100891.50;5053987;28;46280;-64
2023/08/09 07:26:18;;;;;;;;;1.33;1.33;;;;;22.26;72.15;100882.13;5053152;28;45815;-63
2023/08/09 07:28:44;;;;;;;;;2.00;2.00;;;;;22.41;72.16;100888.84;5053591;28;45460;-64
2023/08/09 07:31:20;;;;;;;;;2.00;1.50;;;;;22.59;71.24;100888.25;5054620;28;54294;-63
2023/08/09 07:33:46;;;;;;;;;2.25;2.25;;;;;22.70;70.12;100879.28;5053997;28;46331;-64
2023/08/09 07:36:11;;;;;;;;;2.25;2.25;;;;;22.83;70.39;100884.44;5054460;28;45454;-65
2023/08/09 07:38:37;;;;;;;;;2.00;2.00;;;;;22.96;69.54;100878.84;5054368;28;45290;-65
2023/08/09 07:41:02;;;;;;;;;1.00;1.00;;;;;23.06;68.10;100890.44;5036441;28;45252;-63
2023/08/09 07:43:28;;;;;;;;;2.00;2.00;;;;;23.15;67.87;100886.13;5054105;28;46166;-64
2023/08/09 07:45:54;;;;;;;;;2.00;2.00;;;;;23.21;67.74;100893.63;5053347;28;61716;-64
2023/08/09 07:48:19;;;;;;;;;2.00;2.00;;;;;23.30;66.88;100889.28;5056894;28;45367;-65
2023/08/09 07:50:45;;;;;;;;;1.00;1.00;;;;;23.40;66.26;100900.91;5057713;28;45273;-64
2023/08/09 07:53:10;;;;;;;;;2.00;2.00;;;;;23.41;65.75;100891.88;5039208;28;46523;-63
2023/08/09 07:55:36;;;;;;;;;4.00;4.00;;;;;23.51;65.92;100891.03;5056939;28;45399;-64
2023/08/09 07:58:01;;;;;;;;;4.25;4.25;;;;;23.59;64.95;100889.34;5054917;28;60275;-62
2023/08/09 08:00:26;;;;;;;;;2.50;2.50;;;;;23.81;65.05;100882.00;5057460;28;45438;-64
2023/08/09 08:02:52;;;;;;;;;2.25;2.25;;;;;23.81;64.08;100891.91;5059083;28;45920;-65
2023/08/09 08:05:17;;;;;;;;;3.25;3.25;;;;;23.88;63.06;100893.03;5060575;28;45418;-65
2023/08/09 08:07:43;;;;;;;;;1.75;1.75;;;;;23.84;62.75;100899.69;5058386;28;45449;-64
2023/08/09 08:10:13;;;;;;;;;1.00;1.00;;;;;23.72;62.78;100897.13;5057502;28;45284;-63
2023/08/09 08:12:39;;;;;;;;;2.25;2.25;;;;;23.62;62.90;100898.97;5056951;28;46198;-64
2023/08/09 08:15:06;;;;;;;;;1.00;1.00;;;;;23.68;62.63;100892.16;5056992;28;45291;-64
2023/08/09 08:17:32;;;;;;;;;1.67;1.67;;;;;23.82;62.21;100894.44;5057018;28;45418;-65
2023/08/09 08:19:57;;;;;;;;;2.00;2.00;;;;;23.93;61.90;100894.31;5056971;28;45748;-64
2023/08/09 08:22:23;;;;;;;;;2.00;2.00;;;;;23.99;61.73;100902.81;5056819;28;45438;-65
2023/08/09 08:24:48;;;;;;;;;3.50;3.50;;;;;24.09;61.67;100908.19;5056616;28;45402;-65
2023/08/09 08:27:13;;;;;;;;;1.75;1.75;;;;;24.17;61.20;100911.00;5057001;28;45343;-67
2023/08/09 08:29:39;;;;;;;;;2.75;2.75;;;;;24.39;60.47;100907.16;5055683;28;45663;-66
2023/08/09 08:32:05;;;;;;;;;0.67;0.67;;;;;24.60;60.34;100906.13;5056533;28;46159;-66
2023/08/09 08:34:31;;;;;;;;;3.75;3.75;;;;;24.83;59.62;100917.41;5056538;28;45444;-65
2023/08/09 08:37:00;;;;;;;;;6.50;6.50;;;;;24.97;58.78;100912.53;5056579;28;45441;-64
2023/08/09 08:39:28;;;;;;;;;4.75;4.75;;;;;25.02;58.15;100926.41;5056603;28;45307;-66
2023/08/09 08:41:55;;;;;;;;;2.00;2.00;;;;;24.96;57.72;100921.63;5056084;28;46336;-65
2023/08/09 08:44:23;;;;;;;;;0.00;0.00;;;;;24.90;57.48;100923.03;5056291;28;45363;-65
2023/08/09 08:46:49;;;;;;;;;4.00;3.50;;;;;24.93;57.57;100923.59;5056483;28;45221;-64
2023/08/09 08:49:20;;;;;;;;;4.75;4.75;;;;;25.02;57.06;100921.88;5056764;28;45183;-65
2023/08/09 08:51:50;;;;;;;;;3.00;3.00;;;;;25.12;56.73;100924.50;5056346;28;47260;-66
2023/08/09 08:54:16;;;;;;;;;1.67;1.00;;;;;24.96;56.55;100902.78;5056623;28;45396;-67
2023/08/09 08:56:41;;;;;;;;;1.00;1.00;;;;;25.23;56.13;100929.69;5056504;28;45243;-65
2023/08/09 08:59:08;;;;;;;;;2.67;2.67;;;;;25.44;55.78;100925.88;5056109;28;45553;-63
2023/08/09 09:01:34;;;;;;;;;14.50;14.50;;;;;25.61;56.26;100918.06;5056482;28;45443;-64
2023/08/09 09:04:00;;;;;;;;;1.25;1.25;;;;;25.76;55.12;100934.50;5056097;28;45437;-64
2023/08/09 09:06:26;;;;;;;;;1.00;1.00;;;;;25.84;55.17;100933.75;5056359;28;45373;-66
2023/08/09 09:08:59;;;;;;;;;1.25;1.25;;;;;25.94;54.59;100939.91;5056540;28;45498;-67
2023/08/09 09:11:25;;;;;;;;;2.00;2.00;;;;;25.84;53.94;100947.22;5057061;28;46287;-65
2023/08/09 09:13:51;;;;;;;;;1.75;1.75;;;;;25.91;54.22;100946.44;5059306;28;45367;-64
2023/08/09 09:16:19;;;;;;;;;0.67;0.67;;;;;26.11;53.66;100946.31;5056983;28;45386;-63
2023/08/09 09:18:46;;;;;;;;;0.00;0.00;;;;;26.30;53.04;100942.59;5056729;28;45558;-64
2023/08/09 09:21:14;;;;;;;;;0.67;0.67;;;;;26.44;52.90;100941.22;5056108;28;45468;-64
2023/08/09 09:23:39;;;;;;;;;0.00;0.00;;;;;26.59;51.94;100957.69;5038160;28;45330;-63
2023/08/09 09:26:08;;;;;;;;;0.00;0.00;;;;;26.56;52.02;100955.31;5056381;28;45344;-64
2023/08/09 09:28:44;;;;;;;;;0.67;0.67;;;;;26.57;52.09;100953.44;5056553;28;45505;-65
2023/08/09 09:31:12;;;;;;;;;0.67;0.67;;;;;26.50;51.71;100950.50;5037961;28;47511;-64
2023/08/09 09:33:39;;;;;;;;;1.00;1.00;;;;;26.51;51.63;100950.38;5055508;28;45407;-65
2023/08/09 09:36:09;;;;;;;;;1.00;1.00;;;;;26.47;52.02;100953.53;5055980;28;45457;-64
2023/08/09 09:38:36;;;;;;;;;4.00;4.00;;;;;26.54;51.71;100949.22;5056581;28;45437;-64
2023/08/09 09:41:01;;;;;;;;;4.00;4.00;;;;;26.63;52.13;100945.56;5055763;28;47270;-64
2023/08/09 09:43:31;;;;;;;;;0.00;0.00;;;;;26.65;50.47;100948.94;5055834;28;45362;-65
2023/08/09 09:45:56;;;;;;;;;3.00;3.00;;;;;26.77;50.57;100944.13;5055865;28;45331;-64
2023/08/09 09:48:23;;;;;;;;;0.00;0.00;;;;;27.01;49.62;100944.44;5056162;28;45680;-65
2023/08/09 09:50:49;;;;;;;;;1.00;1.00;;;;;27.23;49.69;100934.94;5056010;28;46087;-64
2023/08/09 09:53:18;;;;;;;;;2.00;2.00;;;;;27.33;48.74;100948.28;5055880;28;45363;-65
2023/08/09 09:55:45;;;;;;;;;1.00;1.00;;;;;27.37;48.47;100944.25;5055999;28;45495;-65
2023/08/09 09:58:14;;;;;;;;;0.00;0.00;;;;;27.44;48.48;100956.09;5056135;28;45330;-67
2023/08/09 10:00:49;;;;;;;;;1.00;1.00;;;;;27.46;48.11;100954.06;5055081;28;46450;-66
2023/08/09 10:03:16;;;;;;;;;1.75;1.75;;;;;27.24;48.73;100958.22;5054274;28;45354;-64
2023/08/09 10:05:45;;;;;;;;;1.25;1.25;;;;;27.10;48.49;100947.03;5053516;28;45383;-66
2023/08/09 10:08:12;;;;;;;;;2.00;2.00;;;;;26.82;48.32;100954.44;5054355;28;45521;-65
2023/08/09 10:10:40;;;;;;;;;3.25;3.25;;;;;26.76;48.80;100955.91;5054385;28;45398;-64
2023/08/09 10:13:09;;;;;;;;;7.75;7.75;;;;;26.65;48.87;100953.50;5054999;28;45546;-63
2023/08/09 10:15:41;;;;;;;;;1.00;1.00;;;;;26.44;48.88;100951.13;5055372;28;45284;-64
2023/08/09 10:18:15;;;;;;;;;2.00;2.00;;;;;26.33;49.21;100955.78;5055780;28;45361;-64
2023/08/09 10:20:46;;;;;;;;;3.00;3.00;;;;;26.31;49.19;100951.56;5055044;28;46301;-64
2023/08/09 10:23:28;;;;;;;;;1.75;1.75;;;;;25.98;49.79;100932.34;5055328;28;45435;-63
2023/08/09 10:25:55;;;;;;;;;2.00;2.00;;;;;26.19;50.15;100965.28;5055036;28;45329;-64
2023/08/09 10:28:39;;;;;;;;;3.00;3.00;;;;;26.17;50.62;100961.03;5055200;28;45521;-64
2023/08/09 10:31:05;;;;;;;;;2.00;2.00;;;;;26.11;50.53;100960.63;5054949;28;46175;-64
2023/08/09 10:33:31;;;;;;;;;1.50;1.50;;;;;26.18;50.40;100966.28;5054443;28;45280;-65
2023/08/09 10:35:57;;;;;;;;;6.50;6.50;;;;;26.20;49.79;100966.13;5054874;28;45332;-65
2023/08/09 10:38:31;;;;;;;;;2.25;2.25;;;;;26.42;49.89;100969.31;5055266;28;45159;-64
2023/08/09 10:40:58;;;;;;;;;3.00;3.00;;;;;26.48;49.66;100974.09;5054751;28;45606;-64
2023/08/09 10:43:25;;;;;;;;;2.00;2.00;;;;;26.58;48.99;100974.00;5055110;28;45255;-65
2023/08/09 10:45:53;;;;;;;;;3.00;3.00;;;;;26.77;48.68;100973.81;5053955;28;45372;-64
2023/08/09 10:48:23;;;;;;;;;2.50;2.50;;;;;26.96;48.50;100977.31;5038841;28;45268;-65
2023/08/09 10:51:07;;;;;;;;;0.50;0.50;;;;;27.05;48.24;100978.22;5058160;28;45502;-64
2023/08/09 10:53:55;;;;;;;;;2.75;2.75;;;;;27.23;47.77;100975.44;5055936;28;45362;-64
2023/08/09 10:56:46;;;;;;;;;1.00;1.00;;;;;27.50;47.78;100981.66;5055019;28;45213;-64
2023/08/09 10:59:21;;;;;;;;;1.67;1.67;;;;;27.65;46.63;100990.81;5054892;28;45217;-65
2023/08/09 11:01:47;;;;;;;;;1.75;1.75;;;;;27.67;46.45;100987.97;5050874;28;45525;-64
2023/08/09 11:04:14;;;;;;;;;2.00;2.00;;;;;27.78;46.86;100992.19;5053342;28;45326;-67
2023/08/09 11:06:43;;;;;;;;;2.00;2.00;;;;;27.84;46.62;100997.81;5054582;28;45410;-64
2023/08/09 11:09:12;;;;;;;;;3.50;3.50;;;;;28.13;46.30;100993.81;5054347;28;45587;-65
2023/08/09 11:11:42;;;;;;;;;2.00;2.00;;;;;28.35;46.33;100991.47;5054165;28;46290;-62
2023/08/09 11:14:09;;;;;;;;;2.75;2.75;;;;;28.42;46.10;100989.75;5019390;28;45313;-64
2023/08/09 11:16:35;;;;;;;;;3.00;3.00;;;;;28.37;45.45;100986.72;5036716;28;45349;-65
2023/08/09 11:19:04;;;;;;;;;4.00;4.00;;;;;28.39;45.68;100981.16;5048431;28;45672;-68
2023/08/09 11:21:41;;;;;;;;;1.00;1.00;;;;;28.23;45.78;100982.00;5033108;28;46307;-66
2023/08/09 11:24:08;;;;;;;;;2.00;1.00;;;;;27.99;45.84;100979.06;5036992;28;45376;-64